sensor_id;sensor_type;location;lat;lon;timestamp;temperature;humidity
61201;DHT22;47065;52.898;6.992;2024-01-11T00:00:05;-5.10;99.90
61201;DHT22;47065;52.898;6.992;2024-01-11T00:02:30;-5.10;99.90
61201;DHT22;47065;52.898;6.992;2024-01-11T00:04:56;-5.10;99.90
61201;DHT22;47065;52.898;6.992;2024-01-11T00:07:22;-5.10;99.90
61201;DHT22;47065;52.898;6.992;2024-01-11T00:09:47;-5.20;99.90
61201;DHT22;47065;52.898;6.992;2024-01-11T00:12:13;-5.20;99.90
61201;DHT22;47065;52.898;6.992;2024-01-11T00:14:39;-5.20;99.90
61201;DHT22;47065;52.898;6.992;2024-01-11T00:17:05;-5.30;99.90
61201;DHT22;47065;52.898;6.992;2024-01-11T00:19:31;-5.20;99.90
61201;DHT22;47065;52.898;6.992;2024-01-11T00:21:57;-5.20;99.90
61201;DHT22;47065;52.898;6.992;2024-01-11T00:24:23;-5.20;99.90
61201;DHT22;47065;52.898;6.992;2024-01-11T00:26:48;-5.30;99.90
61201;DHT22;47065;52.898;6.992;2024-01-11T00:29:14;-5.20;99.90
61201;DHT22;47065;52.898;6.992;2024-01-11T00:31:39;-5.20;99.90
61201;DHT22;47065;52.898;6.992;2024-01-11T00:34:05;-5.30;99.90
61201;DHT22;47065;52.898;6.992;2024-01-11T00:36:31;-5.30;99.90
61201;DHT22;47065;52.898;6.992;2024-01-11T00:38:58;-5.30;99.90
61201;DHT22;47065;52.898;6.992;2024-01-11T00:41:25;-5.30;99.90
61201;DHT22;47065;52.898;6.992;2024-01-11T00:43:50;-5.40;99.90
61201;DHT22;47065;52.898;6.992;2024-01-11T00:46:16;-5.40;99.90
61201;DHT22;47065;52.898;6.992;2024-01-11T00:48:42;-5.30;99.90
61201;DHT22;47065;52.898;6.992;2024-01-11T00:51:07;-5.40;99.90
61201;DHT22;47065;52.898;6.992;2024-01-11T00:53:33;-5.40;99.90
61201;DHT22;47065;52.898;6.992;2024-01-11T00:55:59;-5.40;99.90
61201;DHT22;47065;52.898;6.992;2024-01-11T00:58:25;-5.40;99.90
61201;DHT22;47065;52.898;6.992;2024-01-11T01:00:51;-5.40;99.90
61201;DHT22;47065;52.898;6.992;2024-01-11T01:03:18;-5.30;99.90
61201;DHT22;47065;52.898;6.992;2024-01-11T01:05:44;-5.30;99.90
61201;DHT22;47065;52.898;6.992;2024-01-11T01:08:10;-5.30;99.90
61201;DHT22;47065;52.898;6.992;2024-01-11T01:10:36;-5.30;99.90
61201;DHT22;47065;52.898;6.992;2024-01-11T01:13:01;-5.30;99.90
61201;DHT22;47065;52.898;6.992;2024-01-11T01:15:28;-5.20;99.90
61201;DHT22;47065;52.898;6.992;2024-01-11T01:17:53;-5.30;99.90
61201;DHT22;47065;52.898;6.992;2024-01-11T01:20:19;-5.30;99.90
61201;DHT22;47065;52.898;6.992;2024-01-11T01:22:45;-5.30;99.90
61201;DHT22;47065;52.898;6.992;2024-01-11T01:25:10;-5.30;99.90
61201;DHT22;47065;52.898;6.992;2024-01-11T01:27:36;-5.30;99.90
61201;DHT22;47065;52.898;6.992;2024-01-11T01:30:02;-5.30;99.90
61201;DHT22;47065;52.898;6.992;2024-01-11T01:32:28;-5.30;99.90
61201;DHT22;47065;52.898;6.992;2024-01-11T01:34:53;-5.30;99.90
61201;DHT22;47065;52.898;6.992;2024-01-11T01:37:19;-5.30;99.90
61201;DHT22;47065;52.898;6.992;2024-01-11T01:39:45;-5.30;99.90
61201;DHT22;47065;52.898;6.992;2024-01-11T01:42:10;-5.40;99.90
61201;DHT22;47065;52.898;6.992;2024-01-11T01:44:36;-5.40;99.90
61201;DHT22;47065;52.898;6.992;2024-01-11T01:47:03;-5.40;99.90
61201;DHT22;47065;52.898;6.992;2024-01-11T01:49:29;-5.40;99.90
61201;DHT22;47065;52.898;6.992;2024-01-11T01:51:55;-5.40;99.90
61201;DHT22;47065;52.898;6.992;2024-01-11T01:54:23;-5.40;99.90
61201;DHT22;47065;52.898;6.992;2024-01-11T01:56:49;-5.50;99.90
61201;DHT22;47065;52.898;6.992;2024-01-11T01:59:15;-5.50;99.90
61201;DHT22;47065;52.898;6.992;2024-01-11T02:01:41;-5.50;99.90
61201;DHT22;47065;52.898;6.992;2024-01-11T02:04:07;-5.50;99.90
61201;DHT22;47065;52.898;6.992;2024-01-11T02:06:34;-5.50;99.90
61201;DHT22;47065;52.898;6.992;2024-01-11T02:09:01;-5.50;99.90
61201;DHT22;47065;52.898;6.992;2024-01-11T02:11:30;-5.60;99.90
61201;DHT22;47065;52.898;6.992;2024-01-11T02:13:56;-5.60;99.90
61201;DHT22;47065;52.898;6.992;2024-01-11T02:16:23;-5.60;99.90
61201;DHT22;47065;52.898;6.992;2024-01-11T02:18:49;-5.60;99.90
61201;DHT22;47065;52.898;6.992;2024-01-11T02:21:15;-5.60;99.90
61201;DHT22;47065;52.898;6.992;2024-01-11T02:24:03;-5.60;99.90
61201;DHT22;47065;52.898;6.992;2024-01-11T02:26:29;-5.60;99.90
61201;DHT22;47065;52.898;6.992;2024-01-11T02:28:55;-5.60;99.90
61201;DHT22;47065;52.898;6.992;2024-01-11T02:31:21;-5.60;99.90
61201;DHT22;47065;52.898;6.992;2024-01-11T02:33:47;-5.60;99.90
61201;DHT22;47065;52.898;6.992;2024-01-11T02:36:13;-5.60;99.90
61201;DHT22;47065;52.898;6.992;2024-01-11T02:38:41;-5.60;99.90
61201;DHT22;47065;52.898;6.992;2024-01-11T02:41:08;-5.60;99.90
61201;DHT22;47065;52.898;6.992;2024-01-11T02:43:34;-5.60;99.90
61201;DHT22;47065;52.898;6.992;2024-01-11T02:46:04;-5.60;99.90
61201;DHT22;47065;52.898;6.992;2024-01-11T02:48:30;-5.50;99.90
61201;DHT22;47065;52.898;6.992;2024-01-11T02:50:57;-5.50;99.90
61201;DHT22;47065;52.898;6.992;2024-01-11T02:53:23;-5.50;99.90
61201;DHT22;47065;52.898;6.992;2024-01-11T02:55:50;-5.50;99.90
61201;DHT22;47065;52.898;6.992;2024-01-11T02:58:15;-5.50;99.90
61201;DHT22;47065;52.898;6.992;2024-01-11T03:00:41;-5.40;99.90
61201;DHT22;47065;52.898;6.992;2024-01-11T03:03:07;-5.40;99.90
61201;DHT22;47065;52.898;6.992;2024-01-11T03:05:32;-5.40;99.90
61201;DHT22;47065;52.898;6.992;2024-01-11T03:07:58;-5.40;99.90
61201;DHT22;47065;52.898;6.992;2024-01-11T03:10:24;-5.40;99.90
61201;DHT22;47065;52.898;6.992;2024-01-11T03:12:50;-5.40;99.90
61201;DHT22;47065;52.898;6.992;2024-01-11T03:15:16;-5.40;99.90
61201;DHT22;47065;52.898;6.992;2024-01-11T03:17:41;-5.50;99.90
61201;DHT22;47065;52.898;6.992;2024-01-11T03:20:07;-5.50;99.90
61201;DHT22;47065;52.898;6.992;2024-01-11T03:22:33;-5.50;99.90
61201;DHT22;47065;52.898;6.992;2024-01-11T03:24:59;-5.50;99.90
61201;DHT22;47065;52.898;6.992;2024-01-11T03:27:25;-5.50;99.90
61201;DHT22;47065;52.898;6.992;2024-01-11T03:29:50;-5.50;99.90
61201;DHT22;47065;52.898;6.992;2024-01-11T03:32:16;-5.60;99.90
61201;DHT22;47065;52.898;6.992;2024-01-11T03:34:42;-5.60;99.90
61201;DHT22;47065;52.898;6.992;2024-01-11T03:37:08;-5.60;99.90
61201;DHT22;47065;52.898;6.992;2024-01-11T03:39:34;-5.60;99.90
61201;DHT22;47065;52.898;6.992;2024-01-11T03:42:00;-5.60;99.90
61201;DHT22;47065;52.898;6.992;2024-01-11T03:44:26;-5.60;99.90
61201;DHT22;47065;52.898;6.992;2024-01-11T03:46:51;-5.60;99.90
61201;DHT22;47065;52.898;6.992;2024-01-11T03:49:17;-5.70;99.90
61201;DHT22;47065;52.898;6.992;2024-01-11T03:51:43;-5.60;99.90
61201;DHT22;47065;52.898;6.992;2024-01-11T03:54:09;-5.70;99.90
61201;DHT22;47065;52.898;6.992;2024-01-11T03:56:39;-5.70;99.90
61201;DHT22;47065;52.898;6.992;2024-01-11T03:59:07;-5.70;99.90
61201;DHT22;47065;52.898;6.992;2024-01-11T04:01:33;-5.70;99.90
61201;DHT22;47065;52.898;6.992;2024-01-11T04:03:58;-5.70;99.90
61201;DHT22;47065;52.898;6.992;2024-01-11T04:06:24;-5.70;99.90
61201;DHT22;47065;52.898;6.992;2024-01-11T04:08:50;-5.70;99.90
61201;DHT22;47065;52.898;6.992;2024-01-11T04:11:16;-5.70;99.90
61201;DHT22;47065;52.898;6.992;2024-01-11T04:13:42;-5.70;99.90
61201;DHT22;47065;52.898;6.992;2024-01-11T04:16:08;-5.80;99.90
61201;DHT22;47065;52.898;6.992;2024-01-11T04:18:34;-5.70;99.90
61201;DHT22;47065;52.898;6.992;2024-01-11T04:21:00;-5.70;99.90
61201;DHT22;47065;52.898;6.992;2024-01-11T04:23:25;-5.80;99.90
61201;DHT22;47065;52.898;6.992;2024-01-11T04:25:51;-5.80;99.90
61201;DHT22;47065;52.898;6.992;2024-01-11T04:28:17;-5.80;99.90
61201;DHT22;47065;52.898;6.992;2024-01-11T04:30:43;-5.80;99.90
61201;DHT22;47065;52.898;6.992;2024-01-11T04:33:09;-5.80;99.90
61201;DHT22;47065;52.898;6.992;2024-01-11T04:35:36;-5.80;99.90
61201;DHT22;47065;52.898;6.992;2024-01-11T04:38:01;-5.80;99.90
61201;DHT22;47065;52.898;6.992;2024-01-11T04:40:27;-5.70;99.90
61201;DHT22;47065;52.898;6.992;2024-01-11T04:42:53;-5.80;99.90
61201;DHT22;47065;52.898;6.992;2024-01-11T04:45:18;-5.80;99.90
61201;DHT22;47065;52.898;6.992;2024-01-11T04:47:44;-5.80;99.90
61201;DHT22;47065;52.898;6.992;2024-01-11T04:50:10;-5.70;99.90
61201;DHT22;47065;52.898;6.992;2024-01-11T04:52:35;-5.70;99.90
61201;DHT22;47065;52.898;6.992;2024-01-11T04:55:01;-5.70;99.90
61201;DHT22;47065;52.898;6.992;2024-01-11T04:57:27;-5.70;99.90
61201;DHT22;47065;52.898;6.992;2024-01-11T04:59:53;-5.70;99.90
61201;DHT22;47065;52.898;6.992;2024-01-11T05:02:20;-5.70;99.90
61201;DHT22;47065;52.898;6.992;2024-01-11T05:04:47;-5.70;99.90
61201;DHT22;47065;52.898;6.992;2024-01-11T05:07:13;-5.70;99.90
61201;DHT22;47065;52.898;6.992;2024-01-11T05:09:38;-5.70;99.90
61201;DHT22;47065;52.898;6.992;2024-01-11T05:12:05;-5.60;99.90
61201;DHT22;47065;52.898;6.992;2024-01-11T05:14:31;-5.60;99.90
61201;DHT22;47065;52.898;6.992;2024-01-11T05:16:56;-5.60;99.90
61201;DHT22;47065;52.898;6.992;2024-01-11T05:19:22;-5.50;99.90
61201;DHT22;47065;52.898;6.992;2024-01-11T05:21:48;-5.40;99.90
61201;DHT22;47065;52.898;6.992;2024-01-11T05:24:13;-5.40;99.90
61201;DHT22;47065;52.898;6.992;2024-01-11T05:26:39;-5.40;99.90
61201;DHT22;47065;52.898;6.992;2024-01-11T05:29:04;-5.30;99.90
61201;DHT22;47065;52.898;6.992;2024-01-11T05:31:30;-5.30;99.90
61201;DHT22;47065;52.898;6.992;2024-01-11T05:33:56;-5.30;99.90
61201;DHT22;47065;52.898;6.992;2024-01-11T05:36:21;-5.20;99.90
61201;DHT22;47065;52.898;6.992;2024-01-11T05:38:47;-5.20;99.90
61201;DHT22;47065;52.898;6.992;2024-01-11T05:41:13;-5.10;99.90
61201;DHT22;47065;52.898;6.992;2024-01-11T05:43:40;-5.00;99.90
61201;DHT22;47065;52.898;6.992;2024-01-11T05:46:06;-5.00;99.90
61201;DHT22;47065;52.898;6.992;2024-01-11T05:48:32;-4.90;99.90
61201;DHT22;47065;52.898;6.992;2024-01-11T05:50:58;-4.90;99.90
61201;DHT22;47065;52.898;6.992;2024-01-11T05:53:25;-4.80;99.90
61201;DHT22;47065;52.898;6.992;2024-01-11T05:55:53;-4.70;99.90
61201;DHT22;47065;52.898;6.992;2024-01-11T05:58:19;-4.70;99.90
61201;DHT22;47065;52.898;6.992;2024-01-11T06:00:45;-4.60;99.90
61201;DHT22;47065;52.898;6.992;2024-01-11T06:03:13;-4.50;99.90
61201;DHT22;47065;52.898;6.992;2024-01-11T06:05:39;-4.50;99.90
61201;DHT22;47065;52.898;6.992;2024-01-11T06:08:05;-4.40;99.90
61201;DHT22;47065;52.898;6.992;2024-01-11T06:10:31;-4.30;99.90
61201;DHT22;47065;52.898;6.992;2024-01-11T06:12:56;-4.20;99.90
61201;DHT22;47065;52.898;6.992;2024-01-11T06:15:22;-4.20;99.90
61201;DHT22;47065;52.898;6.992;2024-01-11T06:17:48;-4.10;99.90
61201;DHT22;47065;52.898;6.992;2024-01-11T06:20:13;-4.10;99.90
61201;DHT22;47065;52.898;6.992;2024-01-11T06:22:39;-4.00;99.90
61201;DHT22;47065;52.898;6.992;2024-01-11T06:25:05;-4.00;99.90
61201;DHT22;47065;52.898;6.992;2024-01-11T06:27:31;-3.90;99.90
61201;DHT22;47065;52.898;6.992;2024-01-11T06:29:56;-3.80;99.90
61201;DHT22;47065;52.898;6.992;2024-01-11T06:32:22;-3.80;99.90
61201;DHT22;47065;52.898;6.992;2024-01-11T06:34:48;-3.80;99.90
61201;DHT22;47065;52.898;6.992;2024-01-11T06:37:13;-3.70;99.90
61201;DHT22;47065;52.898;6.992;2024-01-11T06:39:39;-3.60;99.90
61201;DHT22;47065;52.898;6.992;2024-01-11T06:42:05;-3.60;99.90
61201;DHT22;47065;52.898;6.992;2024-01-11T06:44:30;-3.60;99.90
61201;DHT22;47065;52.898;6.992;2024-01-11T06:46:56;-3.50;99.90
61201;DHT22;47065;52.898;6.992;2024-01-11T06:49:22;-3.50;99.90
61201;DHT22;47065;52.898;6.992;2024-01-11T06:51:48;-3.40;99.90
61201;DHT22;47065;52.898;6.992;2024-01-11T06:54:13;-3.40;99.90
61201;DHT22;47065;52.898;6.992;2024-01-11T06:56:39;-3.40;99.90
61201;DHT22;47065;52.898;6.992;2024-01-11T06:59:05;-3.30;99.90
61201;DHT22;47065;52.898;6.992;2024-01-11T07:01:30;-3.30;99.90
61201;DHT22;47065;52.898;6.992;2024-01-11T07:03:56;-3.30;99.90
61201;DHT22;47065;52.898;6.992;2024-01-11T07:06:22;-3.30;99.90
61201;DHT22;47065;52.898;6.992;2024-01-11T07:08:48;-3.20;99.90
61201;DHT22;47065;52.898;6.992;2024-01-11T07:11:13;-3.20;99.90
61201;DHT22;47065;52.898;6.992;2024-01-11T07:13:39;-3.20;99.90
61201;DHT22;47065;52.898;6.992;2024-01-11T07:16:05;-3.10;99.90
61201;DHT22;47065;52.898;6.992;2024-01-11T07:18:31;-3.10;99.90
61201;DHT22;47065;52.898;6.992;2024-01-11T07:20:57;-3.00;99.90
61201;DHT22;47065;52.898;6.992;2024-01-11T07:23:26;-3.10;99.90
61201;DHT22;47065;52.898;6.992;2024-01-11T07:25:52;-3.00;99.90
61201;DHT22;47065;52.898;6.992;2024-01-11T07:28:17;-3.00;99.90
61201;DHT22;47065;52.898;6.992;2024-01-11T07:30:45;-2.90;99.90
61201;DHT22;47065;52.898;6.992;2024-01-11T07:33:11;-2.90;99.90
61201;DHT22;47065;52.898;6.992;2024-01-11T07:35:37;-2.90;99.90
61201;DHT22;47065;52.898;6.992;2024-01-11T07:38:03;-2.80;99.90
61201;DHT22;47065;52.898;6.992;2024-01-11T07:40:28;-2.80;99.90
61201;DHT22;47065;52.898;6.992;2024-01-11T07:42:54;-2.80;99.90
61201;DHT22;47065;52.898;6.992;2024-01-11T07:45:20;-2.70;99.90
61201;DHT22;47065;52.898;6.992;2024-01-11T07:47:46;-2.70;99.90
61201;DHT22;47065;52.898;6.992;2024-01-11T07:50:12;-2.70;99.90
61201;DHT22;47065;52.898;6.992;2024-01-11T07:52:38;-2.60;99.90
61201;DHT22;47065;52.898;6.992;2024-01-11T07:55:07;-2.60;99.90
61201;DHT22;47065;52.898;6.992;2024-01-11T07:57:39;-2.60;99.90
61201;DHT22;47065;52.898;6.992;2024-01-11T08:00:05;-2.50;99.90
61201;DHT22;47065;52.898;6.992;2024-01-11T08:02:34;-2.50;99.90
61201;DHT22;47065;52.898;6.992;2024-01-11T08:05:01;-2.50;99.90
61201;DHT22;47065;52.898;6.992;2024-01-11T08:07:29;-2.40;99.90
61201;DHT22;47065;52.898;6.992;2024-01-11T08:09:55;-2.40;99.90
61201;DHT22;47065;52.898;6.992;2024-01-11T08:12:20;-2.40;99.90
61201;DHT22;47065;52.898;6.992;2024-01-11T08:14:46;-2.40;99.90
61201;DHT22;47065;52.898;6.992;2024-01-11T08:17:13;-2.30;99.90
61201;DHT22;47065;52.898;6.992;2024-01-11T08:19:42;-2.30;99.90
61201;DHT22;47065;52.898;6.992;2024-01-11T08:22:10;-2.30;99.90
61201;DHT22;47065;52.898;6.992;2024-01-11T08:24:37;-2.30;99.90
61201;DHT22;47065;52.898;6.992;2024-01-11T08:27:03;-2.30;99.90
61201;DHT22;47065;52.898;6.992;2024-01-11T08:29:28;-2.20;99.90
61201;DHT22;47065;52.898;6.992;2024-01-11T08:31:54;-2.20;99.90
61201;DHT22;47065;52.898;6.992;2024-01-11T08:34:21;-2.20;99.90
61201;DHT22;47065;52.898;6.992;2024-01-11T08:36:46;-2.10;99.90
61201;DHT22;47065;52.898;6.992;2024-01-11T08:39:13;-2.10;99.90
61201;DHT22;47065;52.898;6.992;2024-01-11T08:41:39;-2.10;99.90
61201;DHT22;47065;52.898;6.992;2024-01-11T08:44:05;-2.00;99.90
61201;DHT22;47065;52.898;6.992;2024-01-11T08:46:31;-2.00;99.90
61201;DHT22;47065;52.898;6.992;2024-01-11T08:48:59;-2.00;99.90
61201;DHT22;47065;52.898;6.992;2024-01-11T08:51:25;-1.90;99.90
61201;DHT22;47065;52.898;6.992;2024-01-11T08:53:51;-1.90;99.90
61201;DHT22;47065;52.898;6.992;2024-01-11T08:56:18;-1.80;99.90
61201;DHT22;47065;52.898;6.992;2024-01-11T08:58:44;-1.80;99.90
61201;DHT22;47065;52.898;6.992;2024-01-11T09:01:10;-1.80;99.90
61201;DHT22;47065;52.898;6.992;2024-01-11T09:03:36;-1.70;99.90
61201;DHT22;47065;52.898;6.992;2024-01-11T09:06:02;-1.60;99.90
61201;DHT22;47065;52.898;6.992;2024-01-11T09:08:28;-1.60;99.90
61201;DHT22;47065;52.898;6.992;2024-01-11T09:10:55;-1.60;99.90
61201;DHT22;47065;52.898;6.992;2024-01-11T09:13:30;-1.50;99.90
61201;DHT22;47065;52.898;6.992;2024-01-11T09:15:56;-1.50;99.90
61201;DHT22;47065;52.898;6.992;2024-01-11T09:18:22;-1.40;99.90
61201;DHT22;47065;52.898;6.992;2024-01-11T09:20:48;-1.40;99.90
61201;DHT22;47065;52.898;6.992;2024-01-11T09:23:14;-1.30;99.90
61201;DHT22;47065;52.898;6.992;2024-01-11T09:25:40;-1.30;99.90
61201;DHT22;47065;52.898;6.992;2024-01-11T09:28:05;-1.20;99.90
61201;DHT22;47065;52.898;6.992;2024-01-11T09:30:31;-1.20;99.90
61201;DHT22;47065;52.898;6.992;2024-01-11T09:32:57;-1.10;99.90
61201;DHT22;47065;52.898;6.992;2024-01-11T09:35:23;-1.10;99.90
61201;DHT22;47065;52.898;6.992;2024-01-11T09:37:49;-1.00;99.90
61201;DHT22;47065;52.898;6.992;2024-01-11T09:40:16;-1.00;99.90
61201;DHT22;47065;52.898;6.992;2024-01-11T09:42:42;-0.90;99.90
61201;DHT22;47065;52.898;6.992;2024-01-11T09:45:12;-0.90;99.90
61201;DHT22;47065;52.898;6.992;2024-01-11T09:47:39;-0.80;99.90
61201;DHT22;47065;52.898;6.992;2024-01-11T09:50:05;-0.80;99.90
61201;DHT22;47065;52.898;6.992;2024-01-11T09:52:31;-0.80;99.90
61201;DHT22;47065;52.898;6.992;2024-01-11T09:55:01;-0.70;99.90
61201;DHT22;47065;52.898;6.992;2024-01-11T09:57:31;-0.70;99.90
61201;DHT22;47065;52.898;6.992;2024-01-11T09:59:58;-0.60;99.90
61201;DHT22;47065;52.898;6.992;2024-01-11T10:02:24;-0.50;99.90
61201;DHT22;47065;52.898;6.992;2024-01-11T10:04:52;-0.50;99.90
61201;DHT22;47065;52.898;6.992;2024-01-11T10:07:21;-0.40;99.90
61201;DHT22;47065;52.898;6.992;2024-01-11T10:09:47;-0.40;99.90
61201;DHT22;47065;52.898;6.992;2024-01-11T10:12:13;-0.30;99.90
61201;DHT22;47065;52.898;6.992;2024-01-11T10:14:39;-0.20;99.90
61201;DHT22;47065;52.898;6.992;2024-01-11T10:17:06;-0.20;99.90
61201;DHT22;47065;52.898;6.992;2024-01-11T10:19:32;-0.10;99.90
61201;DHT22;47065;52.898;6.992;2024-01-11T10:21:58;0.00;99.90
61201;DHT22;47065;52.898;6.992;2024-01-11T10:24:24;0.00;99.90
61201;DHT22;47065;52.898;6.992;2024-01-11T10:26:55;0.00;99.90
61201;DHT22;47065;52.898;6.992;2024-01-11T10:29:20;0.10;99.90
61201;DHT22;47065;52.898;6.992;2024-01-11T10:31:47;0.10;99.90
61201;DHT22;47065;52.898;6.992;2024-01-11T10:34:12;0.20;99.90
61201;DHT22;47065;52.898;6.992;2024-01-11T10:36:38;0.30;99.90
61201;DHT22;47065;52.898;6.992;2024-01-11T10:39:06;0.30;99.90
61201;DHT22;47065;52.898;6.992;2024-01-11T10:41:39;0.40;99.90
61201;DHT22;47065;52.898;6.992;2024-01-11T10:44:18;0.40;99.90
61201;DHT22;47065;52.898;6.992;2024-01-11T10:46:45;0.50;99.90
61201;DHT22;47065;52.898;6.992;2024-01-11T10:49:18;0.50;99.90
61201;DHT22;47065;52.898;6.992;2024-01-11T10:51:58;0.60;99.90
61201;DHT22;47065;52.898;6.992;2024-01-11T10:54:24;0.60;99.90
61201;DHT22;47065;52.898;6.992;2024-01-11T10:56:51;0.70;99.90
61201;DHT22;47065;52.898;6.992;2024-01-11T10:59:18;0.70;99.90
61201;DHT22;47065;52.898;6.992;2024-01-11T11:01:46;0.70;99.90
61201;DHT22;47065;52.898;6.992;2024-01-11T11:04:13;0.80;99.90
61201;DHT22;47065;52.898;6.992;2024-01-11T11:06:40;0.80;99.90
61201;DHT22;47065;52.898;6.992;2024-01-11T11:09:07;0.80;99.90
61201;DHT22;47065;52.898;6.992;2024-01-11T11:11:34;0.90;99.90
61201;DHT22;47065;52.898;6.992;2024-01-11T11:14:01;0.90;99.90
61201;DHT22;47065;52.898;6.992;2024-01-11T11:16:27;1.00;99.90
61201;DHT22;47065;52.898;6.992;2024-01-11T11:18:56;1.00;99.90
61201;DHT22;47065;52.898;6.992;2024-01-11T11:21:22;1.00;99.90
61201;DHT22;47065;52.898;6.992;2024-01-11T11:23:50;1.00;99.90
61201;DHT22;47065;52.898;6.992;2024-01-11T11:26:16;1.00;99.90
61201;DHT22;47065;52.898;6.992;2024-01-11T11:28:47;1.10;99.90
61201;DHT22;47065;52.898;6.992;2024-01-11T11:31:43;1.00;99.90
61201;DHT22;47065;52.898;6.992;2024-01-11T11:34:11;1.10;99.90
61201;DHT22;47065;52.898;6.992;2024-01-11T11:36:40;1.10;99.90
61201;DHT22;47065;52.898;6.992;2024-01-11T11:39:10;1.10;99.90
61201;DHT22;47065;52.898;6.992;2024-01-11T11:41:39;1.10;99.90
61201;DHT22;47065;52.898;6.992;2024-01-11T11:44:06;1.10;99.90
61201;DHT22;47065;52.898;6.992;2024-01-11T11:46:32;1.10;99.90
61201;DHT22;47065;52.898;6.992;2024-01-11T11:48:58;1.10;99.90
61201;DHT22;47065;52.898;6.992;2024-01-11T11:51:25;1.10;99.90
61201;DHT22;47065;52.898;6.992;2024-01-11T11:53:52;1.10;99.90
61201;DHT22;47065;52.898;6.992;2024-01-11T11:56:19;1.10;99.90
61201;DHT22;47065;52.898;6.992;2024-01-11T11:58:46;1.10;99.90
61201;DHT22;47065;52.898;6.992;2024-01-11T12:01:14;1.20;99.90
61201;DHT22;47065;52.898;6.992;2024-01-11T12:03:44;1.20;99.90
61201;DHT22;47065;52.898;6.992;2024-01-11T12:06:19;1.20;99.90
61201;DHT22;47065;52.898;6.992;2024-01-11T12:08:47;1.30;99.90
61201;DHT22;47065;52.898;6.992;2024-01-11T12:11:21;1.30;99.90
61201;DHT22;47065;52.898;6.992;2024-01-11T12:13:48;1.40;99.90
61201;DHT22;47065;52.898;6.992;2024-01-11T12:16:14;1.40;99.90
61201;DHT22;47065;52.898;6.992;2024-01-11T12:18:40;1.40;99.90
61201;DHT22;47065;52.898;6.992;2024-01-11T12:21:09;1.40;99.90
61201;DHT22;47065;52.898;6.992;2024-01-11T12:23:38;1.40;99.90
61201;DHT22;47065;52.898;6.992;2024-01-11T12:26:06;1.40;99.90
61201;DHT22;47065;52.898;6.992;2024-01-11T12:28:37;1.40;99.90
61201;DHT22;47065;52.898;6.992;2024-01-11T12:31:03;1.40;99.90
61201;DHT22;47065;52.898;6.992;2024-01-11T12:33:29;1.40;99.90
61201;DHT22;47065;52.898;6.992;2024-01-11T12:35:55;1.40;99.90
61201;DHT22;47065;52.898;6.992;2024-01-11T12:38:21;1.40;99.90
61201;DHT22;47065;52.898;6.992;2024-01-11T12:40:47;1.40;99.90
61201;DHT22;47065;52.898;6.992;2024-01-11T12:43:13;1.40;99.90
61201;DHT22;47065;52.898;6.992;2024-01-11T12:45:39;1.40;99.90
61201;DHT22;47065;52.898;6.992;2024-01-11T12:48:08;1.40;99.90
61201;DHT22;47065;52.898;6.992;2024-01-11T12:50:35;1.50;99.90
61201;DHT22;47065;52.898;6.992;2024-01-11T12:53:14;1.50;99.90
61201;DHT22;47065;52.898;6.992;2024-01-11T12:55:49;1.50;99.90
61201;DHT22;47065;52.898;6.992;2024-01-11T12:58:26;1.50;99.90
61201;DHT22;47065;52.898;6.992;2024-01-11T13:00:52;1.50;99.90
61201;DHT22;47065;52.898;6.992;2024-01-11T13:03:19;1.50;99.90
61201;DHT22;47065;52.898;6.992;2024-01-11T13:05:46;1.50;99.90
61201;DHT22;47065;52.898;6.992;2024-01-11T13:08:11;1.50;99.90
61201;DHT22;47065;52.898;6.992;2024-01-11T13:10:37;1.50;99.90
61201;DHT22;47065;52.898;6.992;2024-01-11T13:13:04;1.50;99.90
61201;DHT22;47065;52.898;6.992;2024-01-11T13:15:31;1.50;99.90
61201;DHT22;47065;52.898;6.992;2024-01-11T13:18:02;1.50;99.90
61201;DHT22;47065;52.898;6.992;2024-01-11T13:20:28;1.50;99.90
61201;DHT22;47065;52.898;6.992;2024-01-11T13:23:14;1.50;99.90
61201;DHT22;47065;52.898;6.992;2024-01-11T13:25:44;1.50;99.90
61201;DHT22;47065;52.898;6.992;2024-01-11T13:28:10;1.50;99.90
61201;DHT22;47065;52.898;6.992;2024-01-11T13:30:41;1.50;99.90
61201;DHT22;47065;52.898;6.992;2024-01-11T13:33:08;1.50;99.90
61201;DHT22;47065;52.898;6.992;2024-01-11T13:35:35;1.50;99.90
61201;DHT22;47065;52.898;6.992;2024-01-11T13:38:01;1.50;99.90
61201;DHT22;47065;52.898;6.992;2024-01-11T13:40:31;1.50;99.90
61201;DHT22;47065;52.898;6.992;2024-01-11T13:42:58;1.50;99.90
61201;DHT22;47065;52.898;6.992;2024-01-11T13:45:24;1.50;99.90
61201;DHT22;47065;52.898;6.992;2024-01-11T13:47:53;1.50;99.90
61201;DHT22;47065;52.898;6.992;2024-01-11T13:50:20;1.50;99.90
61201;DHT22;47065;52.898;6.992;2024-01-11T13:52:45;1.50;99.90
61201;DHT22;47065;52.898;6.992;2024-01-11T13:55:12;1.60;99.90
61201;DHT22;47065;52.898;6.992;2024-01-11T13:57:39;1.50;99.90
61201;DHT22;47065;52.898;6.992;2024-01-11T14:00:05;1.60;99.90
61201;DHT22;47065;52.898;6.992;2024-01-11T14:02:31;1.50;99.90
61201;DHT22;47065;52.898;6.992;2024-01-11T14:04:57;1.50;99.90
61201;DHT22;47065;52.898;6.992;2024-01-11T14:07:23;1.50;99.90
61201;DHT22;47065;52.898;6.992;2024-01-11T14:09:50;1.50;99.90
61201;DHT22;47065;52.898;6.992;2024-01-11T14:12:16;1.50;99.90
61201;DHT22;47065;52.898;6.992;2024-01-11T14:14:42;1.50;99.90
61201;DHT22;47065;52.898;6.992;2024-01-11T14:17:08;1.50;99.90
61201;DHT22;47065;52.898;6.992;2024-01-11T14:19:34;1.50;99.90
61201;DHT22;47065;52.898;6.992;2024-01-11T14:22:00;1.50;99.90
61201;DHT22;47065;52.898;6.992;2024-01-11T14:24:26;1.50;99.90
61201;DHT22;47065;52.898;6.992;2024-01-11T14:26:51;1.50;99.90
61201;DHT22;47065;52.898;6.992;2024-01-11T14:29:17;1.50;99.90
61201;DHT22;47065;52.898;6.992;2024-01-11T14:31:43;1.60;99.90
61201;DHT22;47065;52.898;6.992;2024-01-11T14:34:10;1.50;99.90
61201;DHT22;47065;52.898;6.992;2024-01-11T14:36:36;1.50;99.90
61201;DHT22;47065;52.898;6.992;2024-01-11T14:39:02;1.60;99.90
61201;DHT22;47065;52.898;6.992;2024-01-11T14:41:30;1.50;99.90
61201;DHT22;47065;52.898;6.992;2024-01-11T14:43:57;1.50;99.90
61201;DHT22;47065;52.898;6.992;2024-01-11T14:46:24;1.50;99.90
61201;DHT22;47065;52.898;6.992;2024-01-11T14:48:50;1.50;99.90
61201;DHT22;47065;52.898;6.992;2024-01-11T14:51:15;1.50;99.90
61201;DHT22;47065;52.898;6.992;2024-01-11T14:53:41;1.50;99.90
61201;DHT22;47065;52.898;6.992;2024-01-11T14:56:07;1.50;99.90
61201;DHT22;47065;52.898;6.992;2024-01-11T14:58:33;1.50;99.90
61201;DHT22;47065;52.898;6.992;2024-01-11T15:00:58;1.50;99.90
61201;DHT22;47065;52.898;6.992;2024-01-11T15:03:24;1.50;99.90
61201;DHT22;47065;52.898;6.992;2024-01-11T15:05:53;1.50;99.90
61201;DHT22;47065;52.898;6.992;2024-01-11T15:08:19;1.50;99.90
61201;DHT22;47065;52.898;6.992;2024-01-11T15:10:45;1.50;99.90
61201;DHT22;47065;52.898;6.992;2024-01-11T15:13:11;1.50;99.90
61201;DHT22;47065;52.898;6.992;2024-01-11T15:15:37;1.50;99.90
61201;DHT22;47065;52.898;6.992;2024-01-11T15:18:03;1.50;99.90
61201;DHT22;47065;52.898;6.992;2024-01-11T15:20:28;1.50;99.90
61201;DHT22;47065;52.898;6.992;2024-01-11T15:22:54;1.40;99.90
61201;DHT22;47065;52.898;6.992;2024-01-11T15:25:20;1.40;99.90
61201;DHT22;47065;52.898;6.992;2024-01-11T15:27:46;1.40;99.90
61201;DHT22;47065;52.898;6.992;2024-01-11T15:30:12;1.40;99.90